createdAt,value
2023-05-23T00:01:00.135Z,503.0000
2023-05-23T00:02:02.175Z,505.0000
2023-05-23T00:03:04.243Z,509.0000
2023-05-23T00:04:06.345Z,509.0000
2023-05-23T00:05:08.438Z,512.0000
2023-05-23T00:06:10.569Z,509.0000
2023-05-23T00:07:12.752Z,508.0000
2023-05-23T00:08:14.825Z,507.0000
2023-05-23T00:09:16.941Z,508.0000
2023-05-23T00:10:19.081Z,507.0000
2023-05-23T00:11:21.171Z,509.0000
2023-05-23T00:12:23.338Z,509.0000
2023-05-23T00:13:25.439Z,510.0000
2023-05-23T00:14:27.536Z,508.0000
2023-05-23T00:15:29.676Z,511.0000
2023-05-23T00:16:31.932Z,508.0000
2023-05-23T00:17:33.941Z,509.0000
2023-05-23T00:18:36.026Z,509.0000
2023-05-23T00:19:38.139Z,509.0000
2023-05-23T00:20:38.134Z,510.0000
2023-05-23T00:21:40.320Z,512.0000
2023-05-23T00:22:42.462Z,512.0000
2023-05-23T00:23:44.523Z,514.0000
2023-05-23T00:24:46.643Z,512.0000
2023-05-23T00:25:48.741Z,509.0000
2023-05-23T00:26:50.869Z,511.0000
2023-05-23T00:27:52.939Z,512.0000
2023-05-23T00:28:55.036Z,513.0000
2023-05-23T00:29:57.142Z,514.0000
2023-05-23T00:30:59.262Z,515.0000
2023-05-23T00:32:01.386Z,514.0000
2023-05-23T00:33:03.557Z,510.0000
2023-05-23T00:34:05.625Z,508.0000
2023-05-23T00:35:07.727Z,510.0000
2023-05-23T00:36:09.827Z,512.0000
2023-05-23T00:37:11.919Z,513.0000
2023-05-23T00:38:12.093Z,511.0000
2023-05-23T00:39:14.114Z,510.0000
2023-05-23T00:40:16.266Z,510.0000
2023-05-23T00:41:18.420Z,512.0000
2023-05-23T00:42:20.562Z,512.0000
2023-05-23T00:43:22.886Z,514.0000
2023-05-23T00:44:24.825Z,515.0000
2023-05-23T00:45:26.994Z,515.0000
2023-05-23T00:46:29.113Z,514.0000
2023-05-23T00:47:31.390Z,513.0000
2023-05-23T00:48:33.429Z,514.0000
2023-05-23T00:49:35.549Z,514.0000
2023-05-23T00:50:37.705Z,514.0000
2023-05-23T00:51:39.864Z,514.0000
2023-05-23T00:52:42.003Z,515.0000
2023-05-23T00:53:44.185Z,515.0000
2023-05-23T00:54:46.275Z,514.0000
2023-05-23T00:55:48.446Z,514.0000
2023-05-23T00:57:22.320Z,489.0000
2023-05-23T00:58:24.919Z,505.0000
2023-05-23T00:59:27.078Z,508.0000
2023-05-23T01:00:29.126Z,506.0000
2023-05-23T01:01:29.109Z,503.0000
2023-05-23T01:02:31.290Z,504.0000
2023-05-23T01:03:33.485Z,503.0000
2023-05-23T01:04:35.438Z,504.0000
2023-05-23T01:05:37.551Z,503.0000
2023-05-23T01:06:39.581Z,503.0000
2023-05-23T01:07:41.730Z,502.0000
2023-05-23T01:08:43.745Z,501.0000
2023-05-23T01:09:45.822Z,502.0000
2023-05-23T01:10:47.836Z,502.0000
2023-05-23T01:11:49.967Z,502.0000
2023-05-23T01:12:52.040Z,502.0000
2023-05-23T01:13:54.140Z,500.0000
2023-05-23T01:14:56.352Z,500.0000
2023-05-23T01:15:59.808Z,500.0000
2023-05-23T01:17:00.428Z,502.0000
2023-05-23T01:18:02.558Z,503.0000
2023-05-23T01:19:04.835Z,504.0000
2023-05-23T01:20:06.745Z,502.0000
2023-05-23T01:21:08.797Z,503.0000
2023-05-23T01:22:10.906Z,504.0000
2023-05-23T01:23:13.022Z,503.0000
2023-05-23T01:24:15.192Z,504.0000
2023-05-23T01:25:17.406Z,505.0000
2023-05-23T01:26:19.564Z,502.0000
2023-05-23T01:27:21.734Z,500.0000
2023-05-23T01:28:21.781Z,502.0000
2023-05-23T01:29:23.993Z,502.0000
2023-05-23T01:30:26.219Z,504.0000
2023-05-23T01:31:28.381Z,502.0000
2023-05-23T01:32:30.563Z,503.0000
2023-05-23T01:33:32.703Z,506.0000
2023-05-23T01:34:35.009Z,505.0000
2023-05-23T01:35:37.098Z,503.0000
2023-05-23T01:36:39.206Z,504.0000
2023-05-23T01:37:41.381Z,507.0000
2023-05-23T01:38:43.554Z,506.0000
2023-05-23T01:39:45.733Z,508.0000
2023-05-23T01:40:48.601Z,508.0000
2023-05-23T01:41:50.117Z,508.0000
2023-05-23T01:42:52.292Z,505.0000
2023-05-23T01:43:54.452Z,507.0000
2023-05-23T01:44:56.612Z,505.0000
2023-05-23T01:45:58.865Z,506.0000
2023-05-23T01:47:00.981Z,509.0000
2023-05-23T01:48:03.202Z,510.0000
2023-05-23T01:49:05.338Z,508.0000
2023-05-23T01:50:07.573Z,509.0000
2023-05-23T01:51:09.638Z,509.0000
2023-05-23T01:52:11.740Z,509.0000
2023-05-23T01:53:13.836Z,508.0000
2023-05-23T01:54:13.821Z,507.0000
2023-05-23T01:55:15.948Z,508.0000
2023-05-23T01:56:18.098Z,507.0000
2023-05-23T01:57:20.282Z,509.0000
2023-05-23T01:58:22.427Z,509.0000
2023-05-23T01:59:24.597Z,509.0000
2023-05-23T02:00:26.740Z,508.0000
2023-05-23T02:01:28.944Z,505.0000
2023-05-23T02:02:31.125Z,508.0000
2023-05-23T02:03:33.207Z,510.0000
2023-05-23T02:04:35.333Z,510.0000
2023-05-23T02:05:37.631Z,508.0000
2023-05-23T02:06:39.720Z,507.0000
2023-05-23T02:07:41.868Z,507.0000
2023-05-23T02:08:44.015Z,509.0000
2023-05-23T02:09:46.150Z,510.0000
2023-05-23T02:10:48.347Z,511.0000
2023-05-23T02:11:50.555Z,511.0000
2023-05-23T02:12:52.686Z,510.0000
2023-05-23T02:13:54.877Z,511.0000
2023-05-23T02:14:57.069Z,512.0000
2023-05-23T02:15:59.243Z,511.0000
2023-05-23T02:17:01.487Z,513.0000
2023-05-23T02:18:03.698Z,512.0000
2023-05-23T02:19:05.822Z,512.0000
2023-05-23T02:20:07.984Z,511.0000
2023-05-23T02:21:10.250Z,506.0000
2023-05-23T02:22:12.387Z,506.0000
2023-05-23T02:23:14.409Z,503.0000
2023-05-23T02:24:16.510Z,505.0000
2023-05-23T02:25:18.656Z,506.0000
2023-05-23T02:26:20.856Z,506.0000
2023-05-23T02:28:27.451Z,507.0000
2023-05-23T02:29:29.499Z,506.0000
2023-05-23T02:30:31.645Z,502.0000
2023-05-23T02:31:33.828Z,503.0000
2023-05-23T02:32:35.943Z,503.0000
2023-05-23T02:33:38.080Z,502.0000
2023-05-23T02:34:40.194Z,501.0000
2023-05-23T02:35:42.555Z,502.0000
2023-05-23T02:36:44.563Z,502.0000
2023-05-23T02:37:46.605Z,503.0000
2023-05-23T02:38:48.766Z,501.0000
2023-05-23T02:39:50.846Z,499.0000
2023-05-23T02:40:52.959Z,501.0000
2023-05-23T02:41:55.066Z,502.0000
2023-05-23T02:42:57.196Z,503.0000
2023-05-23T02:43:57.199Z,505.0000
2023-05-23T02:44:59.311Z,505.0000
2023-05-23T02:46:01.500Z,505.0000
2023-05-23T02:47:03.617Z,505.0000
2023-05-23T02:48:05.812Z,506.0000
2023-05-23T02:49:07.958Z,503.0000
2023-05-23T02:50:10.075Z,504.0000
2023-05-23T02:51:12.232Z,506.0000
2023-05-23T02:52:14.529Z,507.0000
2023-05-23T02:53:16.537Z,507.0000
2023-05-23T02:54:18.686Z,508.0000
2023-05-23T02:55:20.781Z,503.0000
2023-05-23T02:56:22.942Z,500.0000
2023-05-23T02:57:25.053Z,496.0000
2023-05-23T02:58:27.197Z,496.0000
2023-05-23T02:59:29.388Z,497.0000
2023-05-23T03:00:31.547Z,499.0000
2023-05-23T03:01:33.795Z,500.0000
2023-05-23T03:02:35.960Z,504.0000
2023-05-23T03:03:38.128Z,505.0000
2023-05-23T03:04:40.084Z,505.0000
2023-05-23T03:05:42.437Z,502.0000
2023-05-23T03:06:44.216Z,504.0000
2023-05-23T03:07:46.491Z,505.0000
2023-05-23T03:08:46.321Z,504.0000
2023-05-23T03:09:48.457Z,504.0000
2023-05-23T03:10:50.570Z,505.0000
2023-05-23T03:11:52.710Z,504.0000
2023-05-23T03:12:54.862Z,504.0000
2023-05-23T03:13:57.028Z,504.0000
2023-05-23T03:14:59.208Z,503.0000
2023-05-23T03:15:59.273Z,505.0000
2023-05-23T03:17:01.417Z,504.0000
2023-05-23T03:18:03.695Z,505.0000
2023-05-23T03:19:05.813Z,503.0000
2023-05-23T03:20:08.096Z,500.0000
2023-05-23T03:21:10.132Z,501.0000
2023-05-23T03:22:12.312Z,502.0000
2023-05-23T03:23:14.612Z,503.0000
2023-05-23T03:24:16.674Z,501.0000
2023-05-23T03:25:18.920Z,501.0000
2023-05-23T03:26:21.112Z,503.0000
2023-05-23T03:27:25.471Z,504.0000
2023-05-23T03:28:01.944Z,505.0000
2023-05-23T03:29:04.130Z,505.0000
2023-05-23T03:30:06.284Z,505.0000
2023-05-23T03:31:08.443Z,507.0000
2023-05-23T03:32:12.809Z,504.0000
2023-05-23T03:33:12.596Z,504.0000
2023-05-23T03:34:14.681Z,506.0000
2023-05-23T03:35:16.822Z,505.0000
2023-05-23T03:36:16.976Z,506.0000
2023-05-23T03:37:18.999Z,507.0000
2023-05-23T03:38:21.296Z,502.0000
2023-05-23T03:39:23.325Z,501.0000
2023-05-23T03:40:25.472Z,501.0000
2023-05-23T03:41:27.644Z,499.0000
2023-05-23T03:42:29.743Z,501.0000
2023-05-23T03:43:31.876Z,505.0000
2023-05-23T03:44:34.010Z,502.0000
2023-05-23T03:45:38.365Z,504.0000
2023-05-23T03:46:39.745Z,505.0000
2023-05-23T03:47:40.385Z,506.0000
2023-05-23T03:48:44.609Z,506.0000
2023-05-23T03:49:46.743Z,504.0000
2023-05-23T03:50:48.871Z,504.0000
2023-05-23T03:51:48.914Z,502.0000
2023-05-23T03:52:51.095Z,502.0000
2023-05-23T03:53:53.353Z,504.0000
2023-05-23T03:54:55.371Z,504.0000
2023-05-23T03:55:57.538Z,505.0000
2023-05-23T03:56:59.681Z,506.0000
2023-05-23T03:58:03.953Z,507.0000
2023-05-23T03:59:01.750Z,508.0000
2023-05-23T04:00:06.044Z,506.0000
2023-05-23T04:01:06.018Z,506.0000
2023-05-23T04:02:10.312Z,506.0000
2023-05-23T04:03:10.409Z,503.0000
2023-05-23T04:04:12.485Z,505.0000
2023-05-23T04:05:14.574Z,513.0000
2023-05-23T04:06:16.742Z,521.0000
2023-05-23T04:07:18.905Z,534.0000
2023-05-23T04:08:21.005Z,510.0000
2023-05-23T04:09:23.296Z,502.0000
2023-05-23T04:10:25.381Z,506.0000
2023-05-23T04:11:27.532Z,503.0000
2023-05-23T04:12:29.740Z,503.0000
2023-05-23T04:13:31.893Z,518.0000
2023-05-23T04:14:34.079Z,516.0000
2023-05-23T04:15:36.273Z,519.0000
2023-05-23T04:16:38.901Z,523.0000
2023-05-23T04:17:40.775Z,521.0000
2023-05-23T04:18:42.972Z,522.0000
2023-05-23T04:19:45.251Z,518.0000
2023-05-23T04:20:47.405Z,518.0000
2023-05-23T04:21:49.649Z,515.0000
2023-05-23T04:22:51.870Z,516.0000
2023-05-23T04:23:51.908Z,516.0000
2023-05-23T04:24:54.253Z,539.0000
2023-05-23T04:26:02.404Z,514.0000
2023-05-23T04:27:05.008Z,512.0000
2023-05-23T04:28:07.195Z,506.0000
2023-05-23T04:29:09.209Z,506.0000
2023-05-23T04:30:11.328Z,506.0000
2023-05-23T04:31:13.478Z,510.0000
2023-05-23T04:32:13.468Z,512.0000
2023-05-23T04:33:15.738Z,512.0000
2023-05-23T04:34:17.784Z,508.0000
2023-05-23T04:35:19.960Z,499.0000
2023-05-23T04:36:22.160Z,498.0000
2023-05-23T04:37:24.325Z,499.0000
2023-05-23T04:38:26.524Z,503.0000
2023-05-23T04:39:28.636Z,506.0000
2023-05-23T04:40:30.849Z,511.0000
2023-05-23T04:41:32.912Z,515.0000
2023-05-23T04:42:34.994Z,517.0000
2023-05-23T04:43:37.162Z,521.0000
2023-05-23T04:44:39.269Z,519.0000
2023-05-23T04:45:41.738Z,520.0000
2023-05-23T04:46:41.450Z,524.0000
2023-05-23T04:47:43.527Z,527.0000
2023-05-23T04:48:45.626Z,530.0000
2023-05-23T04:49:47.695Z,534.0000
2023-05-23T04:50:49.800Z,538.0000
2023-05-23T04:51:51.882Z,540.0000
2023-05-23T04:52:54.012Z,541.0000
2023-05-23T04:53:56.305Z,540.0000
2023-05-23T04:54:58.361Z,543.0000
2023-05-23T04:56:00.634Z,546.0000
2023-05-23T04:57:02.666Z,547.0000
2023-05-23T04:58:04.775Z,548.0000
2023-05-23T04:59:07.034Z,550.0000
2023-05-23T05:00:09.059Z,554.0000
2023-05-23T05:01:11.262Z,546.0000
2023-05-23T05:02:13.379Z,536.0000
2023-05-23T05:03:15.560Z,536.0000
2023-05-23T05:04:17.819Z,535.0000
2023-05-23T05:05:19.911Z,536.0000
2023-05-23T05:06:22.073Z,539.0000
2023-05-23T05:07:22.111Z,541.0000
2023-05-23T05:08:24.288Z,546.0000
2023-05-23T05:09:26.468Z,552.0000
2023-05-23T05:10:28.620Z,554.0000
2023-05-23T05:11:30.926Z,554.0000
2023-05-23T05:12:32.956Z,549.0000
2023-05-23T05:13:35.097Z,550.0000
2023-05-23T05:14:37.267Z,547.0000
2023-05-23T05:15:39.393Z,546.0000
2023-05-23T05:16:41.682Z,541.0000
2023-05-23T05:17:43.754Z,537.0000
2023-05-23T05:18:45.948Z,534.0000
2023-05-23T05:19:48.048Z,532.0000
2023-05-23T05:20:50.143Z,529.0000
2023-05-23T05:21:52.316Z,522.0000
2023-05-23T05:22:54.482Z,521.0000
2023-05-23T05:23:56.641Z,519.0000
2023-05-23T05:24:58.849Z,516.0000
2023-05-23T05:26:00.987Z,514.0000
2023-05-23T05:27:03.284Z,514.0000
2023-05-23T05:28:05.262Z,514.0000
2023-05-23T05:29:07.351Z,513.0000
2023-05-23T05:30:09.428Z,511.0000
2023-05-23T05:31:11.561Z,509.0000
2023-05-23T05:32:13.660Z,504.0000
2023-05-23T05:33:15.815Z,505.0000
2023-05-23T05:34:17.957Z,506.0000
2023-05-23T05:35:20.144Z,507.0000
2023-05-23T05:36:22.256Z,509.0000
2023-05-23T05:37:24.413Z,508.0000
2023-05-23T05:38:26.527Z,507.0000
2023-05-23T05:39:28.692Z,506.0000
2023-05-23T05:40:30.893Z,506.0000
2023-05-23T05:41:32.910Z,503.0000
2023-05-23T05:42:35.107Z,503.0000
2023-05-23T05:43:37.221Z,504.0000
2023-05-23T05:44:39.375Z,505.0000
2023-05-23T05:45:41.590Z,504.0000
2023-05-23T05:46:43.785Z,505.0000
2023-05-23T05:47:45.922Z,506.0000
2023-05-23T05:48:48.035Z,509.0000
2023-05-23T05:49:50.186Z,508.0000
2023-05-23T05:50:52.357Z,505.0000
2023-05-23T05:51:54.507Z,502.0000
2023-05-23T05:52:56.626Z,498.0000
2023-05-23T05:53:58.826Z,494.0000
2023-05-23T05:55:00.956Z,493.0000
2023-05-23T05:56:03.189Z,492.0000
2023-05-23T05:57:05.309Z,491.0000
2023-05-23T05:58:07.614Z,496.0000
2023-05-23T05:59:09.669Z,501.0000
2023-05-23T06:00:11.870Z,504.0000
2023-05-23T06:01:14.088Z,505.0000
2023-05-23T06:02:14.175Z,503.0000
2023-05-23T06:03:16.280Z,501.0000
2023-05-23T06:04:18.723Z,500.0000
2023-05-23T06:05:20.659Z,496.0000
2023-05-23T06:06:22.831Z,496.0000
2023-05-23T06:07:24.953Z,492.0000
2023-05-23T06:08:27.134Z,488.0000
2023-05-23T06:09:29.265Z,487.0000
2023-05-23T06:10:31.404Z,486.0000
2023-05-23T06:11:35.091Z,486.0000
2023-05-23T06:12:35.739Z,486.0000
2023-05-23T06:13:38.054Z,488.0000
2023-05-23T06:14:40.081Z,486.0000
2023-05-23T06:15:42.217Z,484.0000
2023-05-23T06:16:44.372Z,485.0000
2023-05-23T06:17:46.495Z,486.0000
2023-05-23T06:18:48.672Z,488.0000
2023-05-23T06:19:50.819Z,488.0000
2023-05-23T06:20:52.974Z,492.0000
2023-05-23T06:21:55.237Z,498.0000
2023-05-23T06:22:57.208Z,503.0000
2023-05-23T06:23:59.310Z,508.0000
2023-05-23T06:25:01.450Z,510.0000
2023-05-23T06:26:03.614Z,513.0000
2023-05-23T06:27:05.867Z,517.0000
2023-05-23T06:28:08.022Z,523.0000
2023-05-23T06:29:10.335Z,528.0000
2023-05-23T06:30:10.254Z,530.0000
2023-05-23T06:31:12.478Z,529.0000
2023-05-23T06:32:14.591Z,532.0000
2023-05-23T06:33:14.645Z,532.0000
2023-05-23T06:34:16.670Z,533.0000
2023-05-23T06:35:18.798Z,533.0000
2023-05-23T06:36:20.883Z,530.0000
2023-05-23T06:37:23.056Z,530.0000
2023-05-23T06:38:25.168Z,527.0000
2023-05-23T06:39:27.305Z,526.0000
2023-05-23T06:40:29.487Z,526.0000
2023-05-23T06:41:31.643Z,527.0000
2023-05-23T06:42:33.874Z,527.0000
2023-05-23T06:43:36.046Z,529.0000
2023-05-23T06:44:38.312Z,527.0000
2023-05-23T06:45:40.387Z,527.0000
2023-05-23T06:46:42.486Z,524.0000
2023-05-23T06:47:44.719Z,524.0000
2023-05-23T06:48:46.776Z,524.0000
2023-05-23T06:49:48.894Z,523.0000
2023-05-23T06:50:51.107Z,523.0000
2023-05-23T06:51:53.362Z,521.0000
2023-05-23T06:52:55.502Z,520.0000
2023-05-23T06:53:57.677Z,520.0000
2023-05-23T06:54:59.866Z,522.0000
2023-05-23T06:56:02.065Z,522.0000
2023-05-23T06:57:04.257Z,521.0000
2023-05-23T06:58:06.509Z,522.0000
2023-05-23T06:59:08.594Z,522.0000
2023-05-23T07:00:10.755Z,522.0000
2023-05-23T07:01:12.946Z,519.0000
2023-05-23T07:02:15.077Z,520.0000
2023-05-23T07:03:17.217Z,519.0000
2023-05-23T07:04:17.218Z,518.0000
2023-05-23T07:05:19.404Z,517.0000
2023-05-23T07:06:21.529Z,519.0000
2023-05-23T07:07:23.679Z,520.0000
2023-05-23T07:08:25.896Z,520.0000
2023-05-23T07:09:28.079Z,522.0000
2023-05-23T07:10:30.298Z,518.0000
2023-05-23T07:11:32.496Z,519.0000
2023-05-23T07:12:35.042Z,519.0000
2023-05-23T07:13:36.777Z,521.0000
2023-05-23T07:14:38.826Z,523.0000
2023-05-23T07:15:41.076Z,524.0000
2023-05-23T07:16:43.052Z,523.0000
2023-05-23T07:17:45.194Z,522.0000
2023-05-23T07:18:47.487Z,522.0000
2023-05-23T07:19:47.431Z,522.0000
2023-05-23T07:20:49.617Z,521.0000
2023-05-23T07:21:51.805Z,520.0000
2023-05-23T07:22:54.004Z,520.0000
2023-05-23T07:23:56.211Z,517.0000
2023-05-23T07:24:58.393Z,519.0000
2023-05-23T07:26:03.144Z,519.0000
2023-05-23T07:27:02.790Z,520.0000
2023-05-23T07:28:04.934Z,518.0000
2023-05-23T07:29:07.097Z,519.0000
2023-05-23T07:30:09.226Z,516.0000
2023-05-23T07:31:11.543Z,514.0000
2023-05-23T07:32:13.559Z,514.0000
2023-05-23T07:33:15.791Z,513.0000
2023-05-23T07:34:17.896Z,511.0000
2023-05-23T07:35:20.011Z,512.0000
2023-05-23T07:36:22.186Z,511.0000
2023-05-23T07:37:24.384Z,510.0000
2023-05-23T07:38:26.590Z,508.0000
2023-05-23T07:39:28.876Z,508.0000
2023-05-23T07:40:30.975Z,510.0000
2023-05-23T07:41:33.126Z,509.0000
2023-05-23T07:42:35.319Z,510.0000
2023-05-23T07:43:37.481Z,512.0000
2023-05-23T07:44:39.690Z,507.0000
2023-05-23T07:45:41.734Z,507.0000
2023-05-23T07:46:43.923Z,509.0000
2023-05-23T07:47:44.008Z,510.0000
2023-05-23T07:48:46.047Z,510.0000
2023-05-23T07:49:48.218Z,506.0000
2023-05-23T07:50:50.272Z,506.0000
2023-05-23T07:51:52.424Z,507.0000
2023-05-23T07:52:54.546Z,508.0000
2023-05-23T07:53:56.681Z,511.0000
2023-05-23T07:54:58.825Z,515.0000
2023-05-23T07:56:00.970Z,515.0000
2023-05-23T07:57:03.124Z,516.0000
2023-05-23T07:58:05.244Z,518.0000
2023-05-23T07:59:07.346Z,512.0000
2023-05-23T08:00:09.542Z,512.0000
2023-05-23T08:01:11.678Z,513.0000
2023-05-23T08:02:13.923Z,512.0000
2023-05-23T08:03:16.024Z,510.0000
2023-05-23T08:04:18.223Z,508.0000
2023-05-23T08:05:20.330Z,505.0000
2023-05-23T08:06:22.463Z,508.0000
2023-05-23T08:07:24.628Z,508.0000
2023-05-23T08:08:26.804Z,510.0000
2023-05-23T08:09:28.923Z,510.0000
2023-05-23T08:10:31.082Z,510.0000
2023-05-23T08:11:33.221Z,510.0000
2023-05-23T08:12:33.238Z,509.0000
2023-05-23T08:13:35.386Z,508.0000
2023-05-23T08:14:49.750Z,505.0000
2023-05-23T08:15:39.777Z,506.0000
2023-05-23T08:16:42.011Z,507.0000
2023-05-23T08:17:44.214Z,508.0000
2023-05-23T08:18:46.253Z,509.0000
2023-05-23T08:19:48.437Z,509.0000
2023-05-23T08:20:50.623Z,513.0000
2023-05-23T08:21:52.754Z,515.0000
2023-05-23T08:22:54.978Z,516.0000
2023-05-23T08:23:57.152Z,515.0000
2023-05-23T08:24:59.306Z,517.0000
2023-05-23T08:26:01.430Z,519.0000
2023-05-23T08:27:03.581Z,519.0000
2023-05-23T08:28:05.718Z,521.0000
2023-05-23T08:29:07.889Z,522.0000
2023-05-23T08:30:10.059Z,522.0000
2023-05-23T08:31:12.291Z,522.0000
2023-05-23T08:32:56.320Z,514.0000
2023-05-23T08:33:57.253Z,513.0000
2023-05-23T08:34:59.370Z,515.0000
2023-05-23T08:36:01.495Z,517.0000
2023-05-23T08:37:03.688Z,519.0000
2023-05-23T08:38:05.809Z,522.0000
2023-05-23T08:39:07.958Z,526.0000
2023-05-23T08:40:10.098Z,529.0000
2023-05-23T08:41:12.224Z,533.0000
2023-05-23T08:42:14.401Z,533.0000
2023-05-23T08:43:16.463Z,536.0000
2023-05-23T08:44:18.596Z,536.0000
2023-05-23T08:45:20.715Z,535.0000
2023-05-23T08:46:20.722Z,536.0000
2023-05-23T08:47:22.866Z,533.0000
2023-05-23T08:48:24.956Z,531.0000
2023-05-23T08:49:27.021Z,529.0000
2023-05-23T08:50:29.141Z,525.0000
2023-05-23T08:51:31.250Z,526.0000
2023-05-23T08:52:33.409Z,522.0000
2023-05-23T08:53:35.488Z,526.0000
2023-05-23T08:54:37.624Z,523.0000
2023-05-23T08:55:39.988Z,518.0000
2023-05-23T08:56:41.837Z,515.0000
2023-05-23T08:57:41.848Z,516.0000
2023-05-23T08:58:43.936Z,515.0000
2023-05-23T08:59:46.037Z,516.0000
2023-05-23T09:00:48.135Z,515.0000
2023-05-23T09:01:50.309Z,517.0000
2023-05-23T09:02:52.575Z,516.0000
2023-05-23T09:03:54.488Z,516.0000
2023-05-23T09:04:56.596Z,512.0000
2023-05-23T09:05:58.816Z,508.0000
2023-05-23T09:07:00.793Z,508.0000
2023-05-23T09:08:02.965Z,508.0000
2023-05-23T09:09:05.044Z,507.0000
2023-05-23T09:10:04.983Z,509.0000
2023-05-23T09:11:07.121Z,505.0000
2023-05-23T09:12:09.239Z,503.0000
2023-05-23T09:13:11.410Z,502.0000
2023-05-23T09:14:13.496Z,499.0000
2023-05-23T09:15:15.617Z,501.0000
2023-05-23T09:16:17.849Z,499.0000
2023-05-23T09:17:19.923Z,499.0000
2023-05-23T09:18:22.082Z,501.0000
2023-05-23T09:19:24.287Z,505.0000
2023-05-23T09:20:26.345Z,507.0000
2023-05-23T09:21:28.506Z,505.0000
2023-05-23T09:22:30.633Z,505.0000
2023-05-23T09:23:32.798Z,507.0000
2023-05-23T09:24:34.937Z,504.0000
2023-05-23T09:25:37.132Z,503.0000
2023-05-23T09:26:39.296Z,500.0000
2023-05-23T09:27:41.500Z,498.0000
2023-05-23T09:28:43.630Z,495.0000
2023-05-23T09:29:45.756Z,493.0000
2023-05-23T09:30:47.877Z,494.0000
2023-05-23T09:31:50.017Z,496.0000
2023-05-23T09:32:52.173Z,494.0000
2023-05-23T09:33:54.281Z,497.0000
2023-05-23T09:34:56.469Z,497.0000
2023-05-23T09:35:58.530Z,497.0000
2023-05-23T09:37:00.664Z,495.0000
2023-05-23T09:38:02.807Z,494.0000
2023-05-23T09:39:04.987Z,496.0000
2023-05-23T09:40:07.113Z,494.0000
2023-05-23T09:41:09.214Z,493.0000
2023-05-23T09:42:11.346Z,491.0000
2023-05-23T09:43:13.476Z,491.0000
2023-05-23T09:44:15.631Z,489.0000
2023-05-23T09:45:17.780Z,489.0000
2023-05-23T09:46:17.816Z,487.0000
2023-05-23T09:47:20.113Z,490.0000
2023-05-23T09:48:22.182Z,490.0000
2023-05-23T09:49:24.393Z,493.0000
2023-05-23T09:50:26.543Z,492.0000
2023-05-23T09:51:28.690Z,492.0000
2023-05-23T09:52:30.878Z,489.0000
2023-05-23T09:53:33.053Z,489.0000
2023-05-23T09:54:35.220Z,488.0000
2023-05-23T09:55:37.293Z,484.0000
2023-05-23T09:56:39.376Z,482.0000
2023-05-23T09:57:41.475Z,481.0000
2023-05-23T09:58:43.565Z,481.0000
2023-05-23T09:59:45.656Z,481.0000
2023-05-23T10:00:47.742Z,480.0000
2023-05-23T10:01:49.850Z,477.0000
2023-05-23T10:02:52.027Z,477.0000
2023-05-23T10:03:51.978Z,479.0000
2023-05-23T10:04:54.088Z,473.0000
2023-05-23T10:05:56.212Z,477.0000
2023-05-23T10:06:58.311Z,476.0000
2023-05-23T10:08:00.406Z,477.0000
2023-05-23T10:09:02.518Z,474.0000
2023-05-23T10:10:04.650Z,473.0000
2023-05-23T10:11:06.655Z,475.0000
2023-05-23T10:12:08.795Z,475.0000
2023-05-23T10:13:10.942Z,476.0000
2023-05-23T10:14:13.107Z,478.0000
2023-05-23T10:15:15.232Z,482.0000
2023-05-23T10:16:17.369Z,482.0000
2023-05-23T10:17:19.656Z,483.0000
2023-05-23T10:18:21.672Z,485.0000
2023-05-23T10:19:23.912Z,480.0000
2023-05-23T10:20:26.029Z,465.0000
2023-05-23T10:21:28.178Z,446.0000
2023-05-23T10:22:30.295Z,437.0000
2023-05-23T10:23:32.456Z,431.0000
2023-05-23T10:24:32.477Z,430.0000
2023-05-23T10:25:34.699Z,429.0000
2023-05-23T10:26:36.825Z,429.0000
2023-05-23T10:27:39.011Z,431.0000
2023-05-23T10:28:41.180Z,439.0000
2023-05-23T10:29:43.363Z,439.0000
2023-05-23T10:30:45.583Z,448.0000
2023-05-23T10:31:47.611Z,449.0000
2023-05-23T10:32:49.790Z,438.0000
2023-05-23T10:33:51.938Z,431.0000
2023-05-23T10:34:54.091Z,427.0000
2023-05-23T10:35:56.320Z,424.0000
2023-05-23T10:36:58.474Z,421.0000
2023-05-23T10:38:00.593Z,422.0000
2023-05-23T10:39:02.743Z,428.0000
2023-05-23T10:40:04.913Z,431.0000
2023-05-23T10:41:07.108Z,432.0000
2023-05-23T10:42:09.269Z,432.0000
2023-05-23T10:43:11.468Z,432.0000
2023-05-23T10:44:13.650Z,428.0000
2023-05-23T10:45:15.832Z,426.0000
2023-05-23T10:46:18.047Z,426.0000
2023-05-23T10:47:20.214Z,424.0000
2023-05-23T10:48:22.333Z,429.0000
2023-05-23T10:49:24.450Z,423.0000
2023-05-23T10:50:26.618Z,406.0000
2023-05-23T10:51:28.880Z,407.0000
2023-05-23T10:52:30.927Z,409.0000
2023-05-23T10:53:33.032Z,411.0000
2023-05-23T10:54:35.177Z,409.0000
2023-05-23T10:55:37.336Z,414.0000
2023-05-23T10:56:39.495Z,419.0000
2023-05-23T10:57:41.676Z,416.0000
2023-05-23T10:58:41.739Z,412.0000
2023-05-23T10:59:43.929Z,407.0000
2023-05-23T11:00:46.091Z,409.0000
2023-05-23T11:01:48.387Z,411.0000
2023-05-23T11:02:50.578Z,411.0000
2023-05-23T11:03:54.647Z,407.0000
2023-05-23T11:04:54.904Z,408.0000
2023-05-23T11:05:57.066Z,406.0000
2023-05-23T11:06:59.285Z,408.0000
2023-05-23T11:08:01.461Z,406.0000
2023-05-23T11:09:05.472Z,406.0000
2023-05-23T11:10:05.756Z,408.0000
2023-05-23T11:11:07.930Z,406.0000
2023-05-23T11:12:10.109Z,404.0000
2023-05-23T11:13:12.224Z,404.0000
2023-05-23T11:14:14.352Z,404.0000
2023-05-23T11:15:16.467Z,408.0000
2023-05-23T11:16:18.611Z,410.0000
2023-05-23T11:17:20.719Z,411.0000
2023-05-23T11:18:20.664Z,414.0000
2023-05-23T11:19:22.838Z,416.0000
2023-05-23T11:20:24.917Z,418.0000
2023-05-23T11:21:27.034Z,420.0000
2023-05-23T11:22:29.180Z,420.0000
2023-05-23T11:23:31.329Z,426.0000
2023-05-23T11:24:33.438Z,423.0000
2023-05-23T11:25:35.563Z,427.0000
2023-05-23T11:26:37.685Z,418.0000
2023-05-23T11:27:39.866Z,418.0000
2023-05-23T11:28:41.980Z,416.0000
2023-05-23T11:29:44.129Z,416.0000
2023-05-23T11:30:46.250Z,418.0000
2023-05-23T11:31:48.434Z,417.0000
2023-05-23T11:32:50.608Z,416.0000
2023-05-23T11:33:52.663Z,423.0000
2023-05-23T11:34:54.805Z,421.0000
2023-05-23T11:35:56.956Z,421.0000
2023-05-23T11:36:59.047Z,420.0000
2023-05-23T11:38:01.246Z,420.0000
2023-05-23T11:39:03.244Z,419.0000
2023-05-23T11:40:05.329Z,420.0000
2023-05-23T11:41:07.464Z,422.0000
2023-05-23T11:42:09.626Z,421.0000
2023-05-23T11:43:11.879Z,416.0000
2023-05-23T11:44:11.817Z,412.0000
2023-05-23T11:45:13.995Z,411.0000
2023-05-23T11:46:16.189Z,409.0000
2023-05-23T11:47:18.309Z,408.0000
2023-05-23T11:48:20.478Z,411.0000
2023-05-23T11:49:22.627Z,413.0000
2023-05-23T11:50:24.783Z,413.0000
2023-05-23T11:51:26.846Z,416.0000
2023-05-23T11:52:28.972Z,421.0000
2023-05-23T11:53:31.167Z,422.0000
2023-05-23T11:54:33.320Z,422.0000
2023-05-23T11:55:35.465Z,423.0000
2023-05-23T11:56:37.657Z,419.0000
2023-05-23T11:57:39.828Z,417.0000
2023-05-23T11:58:42.031Z,419.0000
2023-05-23T11:59:44.147Z,416.0000
2023-05-23T12:00:46.320Z,419.0000
2023-05-23T12:01:48.419Z,415.0000
2023-05-23T12:02:50.714Z,415.0000
2023-05-23T12:03:53.034Z,418.0000
2023-05-23T12:04:52.763Z,417.0000
2023-05-23T12:05:54.744Z,414.0000
2023-05-23T12:06:56.923Z,416.0000
2023-05-23T12:07:59.005Z,414.0000
2023-05-23T12:09:01.139Z,415.0000
2023-05-23T12:10:03.301Z,417.0000
2023-05-23T12:11:05.462Z,417.0000